sensor_id;sensor_type;location;lat;lon;timestamp;P1;durP1;ratioP1;P2;durP2;ratioP2
40731;SDS011;26420;52.256;9.096;2022-09-24T00:03:07;4.85;;;3.95;;
40731;SDS011;26420;52.256;9.096;2022-09-24T00:08:09;4.03;;;3.35;;
40731;SDS011;26420;52.256;9.096;2022-09-24T00:13:11;6.78;;;3.85;;
40731;SDS011;26420;52.256;9.096;2022-09-24T00:18:16;4.85;;;3.72;;
40731;SDS011;26420;52.256;9.096;2022-09-24T00:23:19;4.88;;;3.78;;
40731;SDS011;26420;52.256;9.096;2022-09-24T00:28:20;6.53;;;4.20;;
40731;SDS011;26420;52.256;9.096;2022-09-24T00:33:22;6.07;;;4.10;;
40731;SDS011;26420;52.256;9.096;2022-09-24T00:38:23;5.70;;;3.95;;
40731;SDS011;26420;52.256;9.096;2022-09-24T00:43:29;7.40;;;4.40;;
40731;SDS011;26420;52.256;9.096;2022-09-24T00:48:36;5.88;;;4.72;;
40731;SDS011;26420;52.256;9.096;2022-09-24T00:53:41;5.65;;;4.82;;
40731;SDS011;26420;52.256;9.096;2022-09-24T00:58:45;5.75;;;4.68;;
40731;SDS011;26420;52.256;9.096;2022-09-24T01:03:52;6.85;;;4.60;;
40731;SDS011;26420;52.256;9.096;2022-09-24T01:08:57;6.65;;;5.00;;
40731;SDS011;26420;52.256;9.096;2022-09-24T01:30:22;7.50;;;4.85;;
40731;SDS011;26420;52.256;9.096;2022-09-24T01:40:38;7.45;;;5.28;;
40731;SDS011;26420;52.256;9.096;2022-09-24T01:45:42;7.80;;;5.03;;
40731;SDS011;26420;52.256;9.096;2022-09-24T01:50:56;8.20;;;5.93;;
40731;SDS011;26420;52.256;9.096;2022-09-24T01:56:07;8.60;;;6.45;;
40731;SDS011;26420;52.256;9.096;2022-09-24T02:01:17;6.97;;;5.95;;
40731;SDS011;26420;52.256;9.096;2022-09-24T02:06:24;9.25;;;5.70;;
40731;SDS011;26420;52.256;9.096;2022-09-24T02:11:31;8.93;;;6.18;;
40731;SDS011;26420;52.256;9.096;2022-09-24T02:16:40;8.98;;;6.07;;
40731;SDS011;26420;52.256;9.096;2022-09-24T02:21:46;12.20;;;8.13;;
40731;SDS011;26420;52.256;9.096;2022-09-24T02:26:49;12.13;;;8.23;;
40731;SDS011;26420;52.256;9.096;2022-09-24T02:31:51;10.38;;;7.50;;
40731;SDS011;26420;52.256;9.096;2022-09-24T02:37:02;9.63;;;6.82;;
40731;SDS011;26420;52.256;9.096;2022-09-24T02:42:06;9.38;;;7.03;;
40731;SDS011;26420;52.256;9.096;2022-09-24T02:47:10;7.68;;;6.88;;
40731;SDS011;26420;52.256;9.096;2022-09-24T02:52:12;12.07;;;8.35;;
40731;SDS011;26420;52.256;9.096;2022-09-24T02:57:13;12.82;;;8.40;;
40731;SDS011;26420;52.256;9.096;2022-09-24T03:02:15;15.82;;;9.05;;
40731;SDS011;26420;52.256;9.096;2022-09-24T03:07:17;18.05;;;10.88;;
40731;SDS011;26420;52.256;9.096;2022-09-24T03:12:18;12.68;;;10.23;;
40731;SDS011;26420;52.256;9.096;2022-09-24T03:17:20;10.45;;;8.60;;
40731;SDS011;26420;52.256;9.096;2022-09-24T03:22:22;10.02;;;7.65;;
40731;SDS011;26420;52.256;9.096;2022-09-24T03:27:23;10.38;;;7.82;;
40731;SDS011;26420;52.256;9.096;2022-09-24T03:32:25;12.25;;;8.38;;
40731;SDS011;26420;52.256;9.096;2022-09-24T03:37:27;10.57;;;7.78;;
40731;SDS011;26420;52.256;9.096;2022-09-24T03:42:28;11.65;;;7.63;;
40731;SDS011;26420;52.256;9.096;2022-09-24T03:47:30;8.98;;;7.55;;
40731;SDS011;26420;52.256;9.096;2022-09-24T03:52:32;10.93;;;7.95;;
40731;SDS011;26420;52.256;9.096;2022-09-24T03:57:34;13.07;;;8.02;;
40731;SDS011;26420;52.256;9.096;2022-09-24T04:02:36;11.07;;;7.60;;
40731;SDS011;26420;52.256;9.096;2022-09-24T04:07:38;11.45;;;7.78;;
40731;SDS011;26420;52.256;9.096;2022-09-24T04:12:39;11.32;;;7.95;;
40731;SDS011;26420;52.256;9.096;2022-09-24T04:17:50;13.45;;;7.60;;
40731;SDS011;26420;52.256;9.096;2022-09-24T04:22:57;12.88;;;7.60;;
40731;SDS011;26420;52.256;9.096;2022-09-24T04:28:00;11.18;;;8.02;;
40731;SDS011;26420;52.256;9.096;2022-09-24T04:33:03;13.55;;;8.68;;
40731;SDS011;26420;52.256;9.096;2022-09-24T04:38:05;11.57;;;8.30;;
40731;SDS011;26420;52.256;9.096;2022-09-24T04:43:07;11.25;;;8.43;;
40731;SDS011;26420;52.256;9.096;2022-09-24T04:48:08;13.77;;;8.77;;
40731;SDS011;26420;52.256;9.096;2022-09-24T04:53:11;14.90;;;9.15;;
40731;SDS011;26420;52.256;9.096;2022-09-24T04:58:13;13.65;;;9.60;;
40731;SDS011;26420;52.256;9.096;2022-09-24T05:03:14;16.58;;;9.68;;
40731;SDS011;26420;52.256;9.096;2022-09-24T05:08:16;15.25;;;9.68;;
40731;SDS011;26420;52.256;9.096;2022-09-24T05:13:18;12.25;;;9.40;;
40731;SDS011;26420;52.256;9.096;2022-09-24T05:18:21;13.13;;;8.50;;
40731;SDS011;26420;52.256;9.096;2022-09-24T05:23:23;11.43;;;8.65;;
40731;SDS011;26420;52.256;9.096;2022-09-24T05:28:25;12.27;;;9.10;;
40731;SDS011;26420;52.256;9.096;2022-09-24T05:33:27;15.48;;;9.25;;
40731;SDS011;26420;52.256;9.096;2022-09-24T05:38:28;12.45;;;9.13;;
40731;SDS011;26420;52.256;9.096;2022-09-24T05:43:30;15.40;;;9.35;;
40731;SDS011;26420;52.256;9.096;2022-09-24T05:48:32;13.68;;;9.45;;
40731;SDS011;26420;52.256;9.096;2022-09-24T05:53:33;13.30;;;9.55;;
40731;SDS011;26420;52.256;9.096;2022-09-24T05:58:35;14.32;;;9.93;;
40731;SDS011;26420;52.256;9.096;2022-09-24T06:03:37;14.98;;;10.55;;
40731;SDS011;26420;52.256;9.096;2022-09-24T06:08:38;18.20;;;11.35;;
40731;SDS011;26420;52.256;9.096;2022-09-24T06:13:40;18.67;;;11.50;;
40731;SDS011;26420;52.256;9.096;2022-09-24T06:18:42;14.82;;;10.57;;
40731;SDS011;26420;52.256;9.096;2022-09-24T06:23:44;14.88;;;9.77;;
40731;SDS011;26420;52.256;9.096;2022-09-24T06:28:46;17.85;;;10.45;;
40731;SDS011;26420;52.256;9.096;2022-09-24T06:33:47;13.32;;;9.52;;
40731;SDS011;26420;52.256;9.096;2022-09-24T06:38:49;13.48;;;9.35;;
40731;SDS011;26420;52.256;9.096;2022-09-24T06:43:52;12.60;;;8.38;;
40731;SDS011;26420;52.256;9.096;2022-09-24T06:48:54;13.45;;;8.77;;
40731;SDS011;26420;52.256;9.096;2022-09-24T06:53:56;13.07;;;8.85;;
40731;SDS011;26420;52.256;9.096;2022-09-24T06:58:58;12.63;;;8.77;;
40731;SDS011;26420;52.256;9.096;2022-09-24T07:03:59;14.63;;;9.57;;
40731;SDS011;26420;52.256;9.096;2022-09-24T07:09:01;16.63;;;10.75;;
40731;SDS011;26420;52.256;9.096;2022-09-24T07:14:03;15.25;;;10.65;;
40731;SDS011;26420;52.256;9.096;2022-09-24T07:19:04;16.10;;;11.05;;
40731;SDS011;26420;52.256;9.096;2022-09-24T07:24:06;16.70;;;10.38;;
40731;SDS011;26420;52.256;9.096;2022-09-24T07:29:07;17.38;;;11.00;;
40731;SDS011;26420;52.256;9.096;2022-09-24T07:34:09;17.85;;;11.48;;
40731;SDS011;26420;52.256;9.096;2022-09-24T07:39:11;19.13;;;10.88;;
40731;SDS011;26420;52.256;9.096;2022-09-24T07:44:12;13.30;;;10.55;;
40731;SDS011;26420;52.256;9.096;2022-09-24T07:49:14;15.80;;;10.95;;
40731;SDS011;26420;52.256;9.096;2022-09-24T07:54:16;17.45;;;11.93;;
40731;SDS011;26420;52.256;9.096;2022-09-24T07:59:18;20.58;;;14.30;;
40731;SDS011;26420;52.256;9.096;2022-09-24T08:04:20;24.23;;;14.75;;
40731;SDS011;26420;52.256;9.096;2022-09-24T08:09:22;24.17;;;15.85;;
40731;SDS011;26420;52.256;9.096;2022-09-24T08:14:24;23.33;;;15.18;;
40731;SDS011;26420;52.256;9.096;2022-09-24T08:19:25;22.65;;;15.27;;
40731;SDS011;26420;52.256;9.096;2022-09-24T08:24:28;21.95;;;14.43;;
40731;SDS011;26420;52.256;9.096;2022-09-24T08:29:31;24.25;;;15.48;;
40731;SDS011;26420;52.256;9.096;2022-09-24T08:34:32;25.23;;;15.45;;
40731;SDS011;26420;52.256;9.096;2022-09-24T08:39:38;25.02;;;14.43;;
40731;SDS011;26420;52.256;9.096;2022-09-24T08:44:44;21.48;;;14.63;;
40731;SDS011;26420;52.256;9.096;2022-09-24T08:50:16;23.20;;;14.93;;
40731;SDS011;26420;52.256;9.096;2022-09-24T08:55:37;25.73;;;14.95;;
40731;SDS011;26420;52.256;9.096;2022-09-24T09:00:44;23.67;;;14.15;;
40731;SDS011;26420;52.256;9.096;2022-09-24T09:05:54;21.80;;;14.32;;
40731;SDS011;26420;52.256;9.096;2022-09-24T09:11:02;21.80;;;12.45;;
40731;SDS011;26420;52.256;9.096;2022-09-24T09:21:42;19.60;;;12.30;;
40731;SDS011;26420;52.256;9.096;2022-09-24T09:26:53;18.33;;;12.10;;
40731;SDS011;26420;52.256;9.096;2022-09-24T09:37:26;16.08;;;10.48;;
40731;SDS011;26420;52.256;9.096;2022-09-24T09:42:34;14.88;;;10.57;;
40731;SDS011;26420;52.256;9.096;2022-09-24T09:47:40;15.95;;;9.77;;
40731;SDS011;26420;52.256;9.096;2022-09-24T09:52:47;12.75;;;9.13;;
40731;SDS011;26420;52.256;9.096;2022-09-24T09:57:49;17.45;;;11.13;;
40731;SDS011;26420;52.256;9.096;2022-09-24T10:02:52;17.08;;;11.40;;
40731;SDS011;26420;52.256;9.096;2022-09-24T10:07:55;16.80;;;10.57;;
40731;SDS011;26420;52.256;9.096;2022-09-24T10:13:07;13.88;;;9.85;;
40731;SDS011;26420;52.256;9.096;2022-09-24T10:18:12;14.02;;;9.82;;
40731;SDS011;26420;52.256;9.096;2022-09-24T10:23:19;17.58;;;10.50;;
40731;SDS011;26420;52.256;9.096;2022-09-24T10:28:23;13.88;;;8.90;;
40731;SDS011;26420;52.256;9.096;2022-09-24T10:33:44;14.13;;;9.65;;
40731;SDS011;26420;52.256;9.096;2022-09-24T10:38:48;15.38;;;9.77;;
40731;SDS011;26420;52.256;9.096;2022-09-24T10:44:04;15.93;;;10.40;;
40731;SDS011;26420;52.256;9.096;2022-09-24T10:49:21;15.30;;;10.50;;
40731;SDS011;26420;52.256;9.096;2022-09-24T10:54:57;14.23;;;9.85;;
40731;SDS011;26420;52.256;9.096;2022-09-24T11:00:10;15.02;;;10.30;;
40731;SDS011;26420;52.256;9.096;2022-09-24T11:05:23;13.35;;;10.20;;
40731;SDS011;26420;52.256;9.096;2022-09-24T11:10:48;16.03;;;10.93;;
40731;SDS011;26420;52.256;9.096;2022-09-24T11:26:26;18.83;;;11.23;;
40731;SDS011;26420;52.256;9.096;2022-09-24T11:37:37;16.17;;;11.43;;
40731;SDS011;26420;52.256;9.096;2022-09-24T11:53:30;16.25;;;9.70;;
40731;SDS011;26420;52.256;9.096;2022-09-24T11:58:42;15.18;;;10.30;;
40731;SDS011;26420;52.256;9.096;2022-09-24T12:09:58;13.57;;;9.45;;
40731;SDS011;26420;52.256;9.096;2022-09-24T12:19:54;14.90;;;8.93;;
40731;SDS011;26420;52.256;9.096;2022-09-24T12:25:03;16.23;;;10.38;;
40731;SDS011;26420;52.256;9.096;2022-09-24T12:35:43;18.55;;;11.32;;
40731;SDS011;26420;52.256;9.096;2022-09-24T12:46:37;15.27;;;10.25;;
40731;SDS011;26420;52.256;9.096;2022-09-24T12:51:39;14.25;;;9.23;;
40731;SDS011;26420;52.256;9.096;2022-09-24T12:56:41;15.93;;;10.13;;
40731;SDS011;26420;52.256;9.096;2022-09-24T13:01:44;18.65;;;10.27;;
40731;SDS011;26420;52.256;9.096;2022-09-24T13:06:46;16.55;;;10.60;;
40731;SDS011;26420;52.256;9.096;2022-09-24T13:11:59;18.75;;;11.35;;
40731;SDS011;26420;52.256;9.096;2022-09-24T13:17:14;16.88;;;11.32;;
40731;SDS011;26420;52.256;9.096;2022-09-24T13:22:19;18.15;;;11.40;;
40731;SDS011;26420;52.256;9.096;2022-09-24T13:32:31;19.00;;;11.55;;
40731;SDS011;26420;52.256;9.096;2022-09-24T13:37:38;13.95;;;8.27;;
40731;SDS011;26420;52.256;9.096;2022-09-24T13:48:33;17.52;;;11.00;;
40731;SDS011;26420;52.256;9.096;2022-09-24T13:58:42;19.55;;;10.88;;
40731;SDS011;26420;52.256;9.096;2022-09-24T14:03:50;17.63;;;11.65;;
40731;SDS011;26420;52.256;9.096;2022-09-24T14:09:01;18.95;;;12.52;;
40731;SDS011;26420;52.256;9.096;2022-09-24T14:14:09;20.63;;;12.27;;
40731;SDS011;26420;52.256;9.096;2022-09-24T14:19:12;19.75;;;12.35;;
40731;SDS011;26420;52.256;9.096;2022-09-24T14:24:22;19.08;;;11.57;;
40731;SDS011;26420;52.256;9.096;2022-09-24T14:29:45;19.92;;;12.60;;
40731;SDS011;26420;52.256;9.096;2022-09-24T14:34:55;18.38;;;12.63;;
40731;SDS011;26420;52.256;9.096;2022-09-24T14:40:05;22.33;;;12.75;;
40731;SDS011;26420;52.256;9.096;2022-09-24T14:45:19;17.67;;;12.60;;
40731;SDS011;26420;52.256;9.096;2022-09-24T14:50:25;19.48;;;13.50;;
40731;SDS011;26420;52.256;9.096;2022-09-24T14:55:40;20.17;;;13.02;;
40731;SDS011;26420;52.256;9.096;2022-09-24T15:00:45;21.42;;;13.02;;
40731;SDS011;26420;52.256;9.096;2022-09-24T15:05:49;19.33;;;12.70;;
40731;SDS011;26420;52.256;9.096;2022-09-24T15:10:53;20.10;;;13.43;;
40731;SDS011;26420;52.256;9.096;2022-09-24T15:21:03;22.08;;;14.55;;
40731;SDS011;26420;52.256;9.096;2022-09-24T15:26:08;23.08;;;15.18;;
40731;SDS011;26420;52.256;9.096;2022-09-24T15:31:10;22.65;;;16.38;;
40731;SDS011;26420;52.256;9.096;2022-09-24T15:36:12;22.48;;;17.10;;
40731;SDS011;26420;52.256;9.096;2022-09-24T15:41:15;21.88;;;15.13;;
40731;SDS011;26420;52.256;9.096;2022-09-24T15:46:16;20.88;;;15.40;;
40731;SDS011;26420;52.256;9.096;2022-09-24T15:51:19;21.45;;;15.18;;
40731;SDS011;26420;52.256;9.096;2022-09-24T15:56:22;22.95;;;15.95;;
40731;SDS011;26420;52.256;9.096;2022-09-24T16:01:24;21.42;;;15.30;;
40731;SDS011;26420;52.256;9.096;2022-09-24T16:06:25;23.63;;;16.50;;
40731;SDS011;26420;52.256;9.096;2022-09-24T16:11:27;24.98;;;15.77;;
40731;SDS011;26420;52.256;9.096;2022-09-24T16:16:29;29.48;;;19.10;;
40731;SDS011;26420;52.256;9.096;2022-09-24T16:21:30;24.73;;;16.83;;
40731;SDS011;26420;52.256;9.096;2022-09-24T16:26:32;25.15;;;17.23;;
40731;SDS011;26420;52.256;9.096;2022-09-24T16:31:35;26.15;;;17.88;;
40731;SDS011;26420;52.256;9.096;2022-09-24T16:36:37;25.10;;;16.70;;
40731;SDS011;26420;52.256;9.096;2022-09-24T16:41:39;23.10;;;15.88;;
40731;SDS011;26420;52.256;9.096;2022-09-24T16:46:40;25.27;;;15.68;;
40731;SDS011;26420;52.256;9.096;2022-09-24T16:51:45;24.25;;;17.00;;
40731;SDS011;26420;52.256;9.096;2022-09-24T16:56:48;26.95;;;17.80;;
40731;SDS011;26420;52.256;9.096;2022-09-24T17:01:50;25.45;;;17.88;;
40731;SDS011;26420;52.256;9.096;2022-09-24T17:06:54;24.42;;;17.25;;
40731;SDS011;26420;52.256;9.096;2022-09-24T17:11:56;33.03;;;18.70;;
40731;SDS011;26420;52.256;9.096;2022-09-24T17:16:58;24.05;;;16.70;;
40731;SDS011;26420;52.256;9.096;2022-09-24T17:21:59;28.48;;;18.75;;
40731;SDS011;26420;52.256;9.096;2022-09-24T17:27:01;30.52;;;18.42;;
40731;SDS011;26420;52.256;9.096;2022-09-24T17:32:03;29.50;;;18.27;;
40731;SDS011;26420;52.256;9.096;2022-09-24T17:37:04;27.00;;;17.95;;
40731;SDS011;26420;52.256;9.096;2022-09-24T17:42:06;28.40;;;19.40;;
40731;SDS011;26420;52.256;9.096;2022-09-24T17:47:08;29.13;;;19.33;;
40731;SDS011;26420;52.256;9.096;2022-09-24T17:52:10;32.10;;;19.50;;
40731;SDS011;26420;52.256;9.096;2022-09-24T17:57:13;26.70;;;18.75;;
40731;SDS011;26420;52.256;9.096;2022-09-24T18:02:15;32.45;;;20.60;;
40731;SDS011;26420;52.256;9.096;2022-09-24T18:07:16;30.88;;;20.08;;
40731;SDS011;26420;52.256;9.096;2022-09-24T18:12:19;31.50;;;19.77;;
40731;SDS011;26420;52.256;9.096;2022-09-24T18:17:20;28.85;;;19.77;;
40731;SDS011;26420;52.256;9.096;2022-09-24T18:22:22;33.17;;;20.95;;
40731;SDS011;26420;52.256;9.096;2022-09-24T18:27:24;33.67;;;20.00;;
40731;SDS011;26420;52.256;9.096;2022-09-24T18:32:25;31.35;;;20.52;;
40731;SDS011;26420;52.256;9.096;2022-09-24T18:37:29;29.88;;;20.35;;
40731;SDS011;26420;52.256;9.096;2022-09-24T18:42:31;33.33;;;21.40;;
40731;SDS011;26420;52.256;9.096;2022-09-24T18:47:35;34.78;;;21.98;;
40731;SDS011;26420;52.256;9.096;2022-09-24T18:52:38;36.05;;;22.75;;
40731;SDS011;26420;52.256;9.096;2022-09-24T18:57:39;34.00;;;22.52;;
40731;SDS011;26420;52.256;9.096;2022-09-24T19:02:41;35.67;;;21.95;;
40731;SDS011;26420;52.256;9.096;2022-09-24T19:07:43;39.08;;;24.13;;
40731;SDS011;26420;52.256;9.096;2022-09-24T19:12:44;40.00;;;24.75;;
40731;SDS011;26420;52.256;9.096;2022-09-24T19:17:46;39.08;;;23.60;;
40731;SDS011;26420;52.256;9.096;2022-09-24T19:22:49;50.45;;;33.90;;
40731;SDS011;26420;52.256;9.096;2022-09-24T19:27:59;44.53;;;26.33;;
40731;SDS011;26420;52.256;9.096;2022-09-24T19:33:03;40.35;;;25.92;;
40731;SDS011;26420;52.256;9.096;2022-09-24T19:38:04;37.75;;;26.02;;
40731;SDS011;26420;52.256;9.096;2022-09-24T19:43:06;42.65;;;26.33;;
40731;SDS011;26420;52.256;9.096;2022-09-24T19:48:08;39.53;;;25.27;;
40731;SDS011;26420;52.256;9.096;2022-09-24T19:53:10;37.72;;;24.27;;
40731;SDS011;26420;52.256;9.096;2022-09-24T19:58:12;35.47;;;22.45;;
40731;SDS011;26420;52.256;9.096;2022-09-24T20:03:14;29.75;;;19.65;;
40731;SDS011;26420;52.256;9.096;2022-09-24T20:08:17;26.33;;;16.80;;
40731;SDS011;26420;52.256;9.096;2022-09-24T20:13:18;21.17;;;14.63;;
40731;SDS011;26420;52.256;9.096;2022-09-24T20:18:20;19.88;;;13.85;;
40731;SDS011;26420;52.256;9.096;2022-09-24T20:23:22;18.63;;;11.73;;
40731;SDS011;26420;52.256;9.096;2022-09-24T20:28:24;15.90;;;10.68;;
40731;SDS011;26420;52.256;9.096;2022-09-24T20:33:26;15.25;;;10.82;;
40731;SDS011;26420;52.256;9.096;2022-09-24T20:38:30;17.50;;;12.77;;
40731;SDS011;26420;52.256;9.096;2022-09-24T20:43:31;18.83;;;12.52;;
40731;SDS011;26420;52.256;9.096;2022-09-24T20:48:33;16.40;;;12.93;;
40731;SDS011;26420;52.256;9.096;2022-09-24T20:53:35;17.48;;;13.32;;
40731;SDS011;26420;52.256;9.096;2022-09-24T20:58:38;15.55;;;12.77;;
40731;SDS011;26420;52.256;9.096;2022-09-24T21:03:40;16.88;;;12.93;;
40731;SDS011;26420;52.256;9.096;2022-09-24T21:08:46;14.90;;;11.32;;
40731;SDS011;26420;52.256;9.096;2022-09-24T21:13:49;14.85;;;10.85;;
40731;SDS011;26420;52.256;9.096;2022-09-24T21:18:52;18.00;;;12.02;;
40731;SDS011;26420;52.256;9.096;2022-09-24T21:23:58;15.63;;;12.10;;
40731;SDS011;26420;52.256;9.096;2022-09-24T21:29:01;20.55;;;12.93;;
40731;SDS011;26420;52.256;9.096;2022-09-24T21:34:05;20.33;;;13.25;;
40731;SDS011;26420;52.256;9.096;2022-09-24T21:39:11;21.83;;;14.70;;
40731;SDS011;26420;52.256;9.096;2022-09-24T21:49:17;21.98;;;15.05;;
40731;SDS011;26420;52.256;9.096;2022-09-24T21:54:20;22.30;;;15.05;;
40731;SDS011;26420;52.256;9.096;2022-09-24T21:59:21;21.40;;;14.73;;
40731;SDS011;26420;52.256;9.096;2022-09-24T22:04:42;22.30;;;15.48;;
40731;SDS011;26420;52.256;9.096;2022-09-24T22:09:44;23.33;;;16.17;;
40731;SDS011;26420;52.256;9.096;2022-09-24T22:14:46;29.02;;;18.40;;
40731;SDS011;26420;52.256;9.096;2022-09-24T22:19:48;31.88;;;18.63;;
40731;SDS011;26420;52.256;9.096;2022-09-24T22:24:49;26.55;;;16.98;;
40731;SDS011;26420;52.256;9.096;2022-09-24T22:29:51;27.88;;;17.05;;
40731;SDS011;26420;52.256;9.096;2022-09-24T22:34:52;27.38;;;17.58;;
40731;SDS011;26420;52.256;9.096;2022-09-24T22:40:12;23.40;;;14.68;;
40731;SDS011;26420;52.256;9.096;2022-09-24T22:45:15;22.20;;;12.45;;
40731;SDS011;26420;52.256;9.096;2022-09-24T22:50:16;19.27;;;12.60;;
40731;SDS011;26420;52.256;9.096;2022-09-24T22:55:19;18.67;;;11.73;;
40731;SDS011;26420;52.256;9.096;2022-09-24T23:00:21;19.15;;;12.50;;
40731;SDS011;26420;52.256;9.096;2022-09-24T23:05:23;19.35;;;12.68;;
40731;SDS011;26420;52.256;9.096;2022-09-24T23:10:25;22.98;;;13.45;;
40731;SDS011;26420;52.256;9.096;2022-09-24T23:15:30;21.70;;;14.00;;
40731;SDS011;26420;52.256;9.096;2022-09-24T23:20:31;22.45;;;13.75;;
40731;SDS011;26420;52.256;9.096;2022-09-24T23:25:33;20.65;;;12.82;;
40731;SDS011;26420;52.256;9.096;2022-09-24T23:30:34;26.58;;;14.40;;
40731;SDS011;26420;52.256;9.096;2022-09-24T23:35:37;22.60;;;14.38;;
40731;SDS011;26420;52.256;9.096;2022-09-24T23:40:39;25.75;;;15.00;;
40731;SDS011;26420;52.256;9.096;2022-09-24T23:45:40;26.63;;;13.80;;
40731;SDS011;26420;52.256;9.096;2022-09-24T23:50:42;27.13;;;15.15;;
40731;SDS011;26420;52.256;9.096;2022-09-24T23:55:45;27.13;;;15.25;;
